Little Valley, Nevada Weather observations

Data are for 10 minute period ending at time listed.
 Day   Time    Ave.   Ave.  Ave.  Vector   Max.   Total    Solar   
  of    of     Air    Rel.  Wind   Wind    Wind  Precip.   Rad.    
Year   Day     Temp.  Hum.  Speed  Dir.    Gust                    
2016   (PST)    F      %     mph   deg.    mph     in.     W/m2    
------------------------------------------------------------------- 
 237   10:00   71.0    10    6.0   244     17.0   16.68     698  
 237   11:00   74.0    10    6.0   213     18.0   16.68     841  
 237   12:00   75.0    11    8.0   226     23.0   16.68     929  
 237   13:00   76.0    11    9.0   235     28.0   16.68     955  
 237   14:00   76.0    12   12.0   258     28.0   16.68     916  
 237   15:00   76.0    12   10.0   255     33.0   16.68     816  
 237   16:00   75.0    11   11.0   259     27.0   16.68     663  
 237   17:00   74.0    12    8.0   247     26.0   16.68     475  
 237   18:00   69.0    16    7.0   234     21.0   16.68     175  
 237   19:00   67.0    23    7.0   246     21.0   16.68      11  
 237   20:00   66.0    26    9.0   258     19.0   16.68       1  
 237   21:00   64.0    27    8.0   268     19.0   16.68       0  
 237   22:00   63.0    29    7.0   260     20.0   16.68       0  
 237   23:00   62.0    21    4.0   256     17.0   16.68       0  
 238    0:00   61.0    21    4.0   240     12.0   16.68       0  
 238    1:00   59.0    21    1.0   190     10.0   16.68       0  
 238    2:00   49.0    35    4.0   162      6.0   16.68       0  
 238    3:00   43.0    46    0.0   188      5.0   16.68       0  
 238    4:00   40.0    54    1.0   201      3.0   16.68       0  
 238    5:00   36.0    60    0.0   232      3.0   16.68       0  
 238    6:00   33.0    67    0.0   186      2.0   16.68       2  
 238    7:00   42.0    52    0.0   143      2.0   16.68      86  
 238    8:00   58.0    39    0.0   164      2.0   16.68     302  
 238    9:00   68.0    20    3.0    71      7.0   16.68     503  

Return to Little Valley, Nevada graphs page.


Western Regional Climate Center,wrcc@dri.edu